createdAt,value
2022-10-23T17:32:47.944Z,22.04
2022-10-23T17:35:14.675Z,22.12
2022-10-23T17:37:41.152Z,22.16
2022-10-23T17:40:08.229Z,22.16
2022-10-23T17:42:34.730Z,22.18
2022-10-23T17:45:01.288Z,22.18
2022-10-23T17:47:27.826Z,22.14
2022-10-23T17:49:54.366Z,22.23
2022-10-23T17:52:20.882Z,22.27
2022-10-23T17:54:52.081Z,22.22
2022-10-23T17:57:18.619Z,22.22
2022-10-23T17:59:45.122Z,22.21
2022-10-23T18:02:13.253Z,22.20
2022-10-23T18:04:39.936Z,22.25
2022-10-23T18:07:06.426Z,22.18
2022-10-23T18:09:33.000Z,22.16
2022-10-23T18:11:59.514Z,22.18
2022-10-23T18:14:28.519Z,22.12
2022-10-23T18:16:56.226Z,22.07
2022-10-23T18:19:22.843Z,22.08
2022-10-23T18:21:49.374Z,22.05
2022-10-23T18:24:16.434Z,21.91
2022-10-23T18:26:43.247Z,21.99
2022-10-23T18:29:11.945Z,22.00
2022-10-23T18:31:39.167Z,21.92
2022-10-23T18:34:15.004Z,21.89
2022-10-23T18:36:41.640Z,21.85
2022-10-23T18:39:11.874Z,21.86
2022-10-23T18:41:40.579Z,21.79
2022-10-23T18:44:08.714Z,21.79
2022-10-23T18:46:36.457Z,21.79
2022-10-23T18:49:03.981Z,21.73
2022-10-23T18:51:32.886Z,21.68
2022-10-23T18:54:09.418Z,21.68
2022-10-23T18:56:36.223Z,21.75
2022-10-23T18:59:05.414Z,21.72
2022-10-23T19:01:32.343Z,21.70
2022-10-23T19:04:00.953Z,21.71
2022-10-23T19:06:29.404Z,21.75
2022-10-23T19:08:56.299Z,21.62
2022-10-23T19:11:25.068Z,21.59
2022-10-23T19:13:51.709Z,21.59
2022-10-23T19:16:38.215Z,21.60
2022-10-23T19:19:19.421Z,21.53
2022-10-23T19:21:46.781Z,21.51
2022-10-23T19:24:19.684Z,21.72
2022-10-23T19:26:46.824Z,21.69
2022-10-23T19:29:16.957Z,21.61
2022-10-23T19:31:48.849Z,21.69
2022-10-23T19:34:20.662Z,21.69
2022-10-23T19:36:48.438Z,21.63
2022-10-23T19:39:15.941Z,21.72
2022-10-23T19:41:43.088Z,21.86
2022-10-23T19:44:09.611Z,21.90
2022-10-23T19:46:37.151Z,21.89
2022-10-23T19:49:05.374Z,21.92
2022-10-23T19:51:32.459Z,21.71
2022-10-23T19:54:00.163Z,21.65
2022-10-23T19:56:26.898Z,21.64
2022-10-23T19:58:53.818Z,21.59
2022-10-23T20:01:22.946Z,21.51
2022-10-23T20:03:50.117Z,21.42
2022-10-23T20:06:22.141Z,21.34
2022-10-23T20:08:48.922Z,21.27
2022-10-23T20:11:21.959Z,21.27
2022-10-23T20:13:49.209Z,21.27
2022-10-23T20:16:21.441Z,21.45
2022-10-23T20:18:48.181Z,21.54
2022-10-23T20:21:15.609Z,21.59
2022-10-23T20:23:42.755Z,21.44
2022-10-23T20:26:12.173Z,21.40
2022-10-23T20:28:39.294Z,21.46
2022-10-23T20:31:10.074Z,21.70
2022-10-23T20:33:38.596Z,21.63
2022-10-23T20:36:07.303Z,21.64
2022-10-23T20:38:35.495Z,21.73
2022-10-23T20:41:07.055Z,21.80
2022-10-23T20:43:34.237Z,21.80
2022-10-23T20:46:08.974Z,21.87
2022-10-23T20:48:36.902Z,21.73
2022-10-23T20:51:04.637Z,21.79
2022-10-23T20:53:31.622Z,21.87
2022-10-23T20:55:58.214Z,21.91
2022-10-23T20:58:24.695Z,21.93
2022-10-23T21:03:22.873Z,21.97
2022-10-23T21:05:49.354Z,22.03
2022-10-23T21:08:16.012Z,22.07
2022-10-23T21:10:46.627Z,22.09
2022-10-23T21:13:13.554Z,22.18
2022-10-23T21:15:40.267Z,22.06
2022-10-23T21:18:26.398Z,22.13
2022-10-23T21:21:00.646Z,21.96
2022-10-23T21:23:28.711Z,21.89
2022-10-23T21:25:55.215Z,22.10
2022-10-23T21:28:21.824Z,22.02
2022-10-23T21:30:48.304Z,21.94
2022-10-23T21:33:14.773Z,21.98
2022-10-23T21:35:52.237Z,21.94
2022-10-23T21:38:25.560Z,21.99
2022-10-23T21:40:52.387Z,21.91
2022-10-23T21:43:18.903Z,22.07
2022-10-23T21:45:45.406Z,22.07
2022-10-23T21:48:12.638Z,22.08
2022-10-23T21:50:39.174Z,21.94
2022-10-23T21:53:05.685Z,21.96
2022-10-23T21:55:32.400Z,21.92
2022-10-23T21:57:58.883Z,21.92
2022-10-23T22:00:25.361Z,21.86
2022-10-23T22:02:51.988Z,21.78
2022-10-23T22:05:18.470Z,22.04
2022-10-23T22:07:48.215Z,21.93
2022-10-23T22:10:14.864Z,21.93
2022-10-23T22:12:41.369Z,21.94
2022-10-23T22:15:08.416Z,21.88
2022-10-23T22:17:35.038Z,21.90
2022-10-23T22:20:01.550Z,21.75
2022-10-23T22:22:28.130Z,21.75
2022-10-23T22:24:54.768Z,21.83
2022-10-23T22:27:21.261Z,21.84
2022-10-23T22:29:47.754Z,21.74
2022-10-23T22:32:14.468Z,21.83
2022-10-23T22:34:52.261Z,21.73
2022-10-23T22:37:19.508Z,21.81
2022-10-23T22:40:36.184Z,21.72
2022-10-23T22:43:02.803Z,21.87
2022-10-23T22:45:29.397Z,21.83
2022-10-23T22:47:56.142Z,21.85
2022-10-23T22:50:22.742Z,21.92
2022-10-23T22:52:49.219Z,21.81
2022-10-23T22:55:15.857Z,21.78
2022-10-23T22:57:42.757Z,21.75
2022-10-23T23:00:10.085Z,21.73
2022-10-23T23:02:36.651Z,21.76
2022-10-23T23:05:03.467Z,21.78
2022-10-23T23:07:30.074Z,21.82
2022-10-23T23:09:56.732Z,21.86
2022-10-23T23:12:23.299Z,21.78
2022-10-23T23:14:49.789Z,21.82
2022-10-23T23:17:16.352Z,21.79
2022-10-23T23:19:42.891Z,21.88
2022-10-23T23:22:09.487Z,22.03
2022-10-23T23:24:36.099Z,21.98
2022-10-23T23:27:02.671Z,21.89
2022-10-23T23:29:29.720Z,21.93
2022-10-23T23:31:56.305Z,21.96
2022-10-23T23:34:22.980Z,21.93
2022-10-23T23:36:49.534Z,21.93
2022-10-23T23:39:16.434Z,21.95
2022-10-23T23:41:43.035Z,21.93
2022-10-23T23:44:09.616Z,21.94
2022-10-23T23:46:36.186Z,21.82
2022-10-23T23:49:02.838Z,21.94
2022-10-23T23:51:29.514Z,21.91
2022-10-23T23:53:56.054Z,21.83
2022-10-23T23:56:22.661Z,21.79
2022-10-23T23:58:49.209Z,21.82
